Time;durP1;ratioP1;P1;durP2;ratioP2;P2;SDS_P1;SDS_P2;PMS_P1;PMS_P2;Temp;Humidity;BMP_temperature;BMP_pressure;BME280_temperature;BME280_humidity;BME280_pressure;Samples;Min_cycle;Max_cycle;Signal;HPM_P1;HPM_P2
2021/01/14 00:02:24;;;;;;;12.47;5.10;;;2.70;99.90;;;;;;5018934;28;20061;-69
2021/01/14 00:04:52;;;;;;;14.37;7.23;;;2.70;99.90;;;;;;5016699;28;20095;-69
2021/01/14 00:07:20;;;;;;;11.83;4.80;;;2.80;99.90;;;;;;5022271;28;20049;-69
2021/01/14 00:09:46;;;;;;;11.80;5.27;;;2.70;99.90;;;;;;5027533;28;20045;-69
2021/01/14 00:12:13;;;;;;;15.43;7.37;;;2.70;99.90;;;;;;5026016;28;20045;-68
2021/01/14 00:14:40;;;;;;;15.13;6.73;;;2.80;99.90;;;;;;5024895;28;20427;-69
2021/01/14 00:17:06;;;;;;;11.57;5.53;;;2.70;99.90;;;;;;5026038;28;20057;-69
2021/01/14 00:19:33;;;;;;;11.47;5.43;;;2.80;99.90;;;;;;5025474;28;20052;-69
2021/01/14 00:22:00;;;;;;;12.37;5.03;;;2.80;99.90;;;;;;5025036;28;20045;-69
2021/01/14 00:24:27;;;;;;;11.50;6.17;;;2.80;99.90;;;;;;5025321;28;20076;-69
2021/01/14 00:26:54;;;;;;;15.30;6.37;;;2.80;99.90;;;;;;5026321;28;20107;-69
2021/01/14 00:29:20;;;;;;;14.40;6.20;;;2.70;99.90;;;;;;5025692;28;20124;-69
2021/01/14 00:31:47;;;;;;;14.60;6.73;;;2.60;99.90;;;;;;5024760;28;20056;-68
2021/01/14 00:34:14;;;;;;;15.17;7.77;;;2.50;99.90;;;;;;5023655;28;20119;-69
2021/01/14 00:39:28;;;;;;;15.43;7.90;;;2.50;99.90;;;;;;5023407;28;20071;-69
2021/01/14 00:41:56;;;;;;;12.80;7.10;;;2.40;99.90;;;;;;5025194;28;20503;-69
2021/01/14 00:44:22;;;;;;;17.50;7.40;;;2.30;99.90;;;;;;5022019;28;20068;-69
2021/01/14 00:46:53;;;;;;;13.67;6.27;;;2.30;99.90;;;;;;5025889;28;20053;-69
2021/01/14 00:49:20;;;;;;;12.67;6.00;;;2.30;99.90;;;;;;5024575;28;20045;-69
2021/01/14 00:51:46;;;;;;;12.63;6.13;;;2.20;99.90;;;;;;5024474;28;20049;-68
2021/01/14 00:54:13;;;;;;;14.37;7.50;;;2.20;99.90;;;;;;5023669;28;20064;-69
2021/01/14 00:56:40;;;;;;;12.80;5.83;;;2.20;99.90;;;;;;5024269;28;20514;-69
2021/01/14 00:59:07;;;;;;;13.47;5.50;;;2.10;99.90;;;;;;5020273;28;20053;-69
2021/01/14 01:01:35;;;;;;;12.63;5.53;;;2.10;99.90;;;;;;5022659;28;20085;-69
2021/01/14 01:04:02;;;;;;;16.20;6.77;;;2.00;99.90;;;;;;5020848;28;20041;-69
2021/01/14 01:06:34;;;;;;;12.13;5.33;;;2.10;99.90;;;;;;5021508;28;20076;-69
2021/01/14 01:09:01;;;;;;;12.23;4.90;;;2.00;99.90;;;;;;5029831;28;20065;-69
2021/01/14 01:11:28;;;;;;;11.40;4.93;;;2.00;99.90;;;;;;5024935;28;20049;-69
2021/01/14 01:13:56;;;;;;;15.23;5.43;;;2.00;99.90;;;;;;5023139;28;20052;-69
2021/01/14 01:16:22;;;;;;;9.83;5.03;;;1.90;99.90;;;;;;5024583;28;20503;-69
2021/01/14 01:18:49;;;;;;;9.37;5.20;;;2.00;99.90;;;;;;5025349;28;20045;-68
2021/01/14 01:21:16;;;;;;;12.47;4.80;;;2.00;99.90;;;;;;5025100;28;20498;-69
2021/01/14 01:23:42;;;;;;;16.87;4.80;;;2.00;99.90;;;;;;5024155;28;20056;-69
2021/01/14 01:26:14;;;;;;;6.23;2.40;;;2.00;99.90;;;;;;5025188;28;20119;-69
2021/01/14 01:28:41;;;;;;;6.53;2.30;;;2.10;99.90;;;;;;5024252;28;20045;-69
2021/01/14 01:31:09;;;;;;;10.80;2.57;;;2.10;99.90;;;;;;5024807;28;20053;-69
2021/01/14 01:33:36;;;;;;;11.27;2.53;;;2.10;99.90;;;;;;5023465;28;20057;-69
2021/01/14 01:36:02;;;;;;;7.50;2.20;;;2.10;99.90;;;;;;5024181;28;20053;-69
2021/01/14 01:38:29;;;;;;;4.93;1.57;;;2.10;99.90;;;;;;5023396;28;20046;-69
2021/01/14 01:40:56;;;;;;;6.20;1.50;;;2.10;99.90;;;;;;5024424;28;20077;-69
2021/01/14 01:43:23;;;;;;;6.77;1.50;;;2.10;99.90;;;;;;5022904;28;20431;-69
2021/01/14 01:45:50;;;;;;;6.90;1.67;;;2.10;99.90;;;;;;5024862;28;20064;-69
2021/01/14 01:48:19;;;;;;;6.67;1.47;;;2.00;99.90;;;;;;5024782;28;20049;-68
2021/01/14 01:50:46;;;;;;;10.93;1.40;;;2.00;99.90;;;;;;5024413;28;20557;-69
2021/01/14 01:53:13;;;;;;;6.73;1.33;;;2.00;99.90;;;;;;5023845;28;20363;-69
2021/01/14 01:55:42;;;;;;;5.07;1.10;;;2.00;99.90;;;;;;5024184;28;20050;-69
2021/01/14 01:58:10;;;;;;;4.80;1.17;;;2.00;99.90;;;;;;5024322;28;20718;-69
2021/01/14 02:00:37;;;;;;;2.30;1.10;;;2.10;99.90;;;;;;5025103;28;20046;-69
2021/01/14 02:03:04;;;;;;;6.83;2.03;;;2.00;99.90;;;;;;5022944;28;20054;-69
2021/01/14 02:05:31;;;;;;;3.70;1.10;;;2.00;99.90;;;;;;5024994;28;20056;-69
2021/01/14 02:08:07;;;;;;;7.27;1.23;;;2.00;99.90;;;;;;5037352;28;20067;-69
2021/01/14 02:10:37;;;;;;;6.78;1.58;;;2.00;99.90;;;;;;5045680;28;20049;-69
2021/01/14 02:13:12;;;;;;;3.47;1.30;;;2.00;99.90;;;;;;5046855;28;20067;-68
2021/01/14 02:15:40;;;;;;;6.43;1.07;;;1.90;99.90;;;;;;5042071;28;20105;-68
2021/01/14 02:18:07;;;;;;;6.87;1.20;;;2.00;99.90;;;;;;5035230;28;20299;-68
2021/01/14 02:20:52;;;;;;;3.67;1.30;;;1.90;99.90;;;;;;5035832;28;20056;-68
2021/01/14 02:23:28;;;;;;;5.73;1.40;;;2.00;99.90;;;;;;5036774;28;20043;-68
2021/01/14 02:26:17;;;;;;;2.90;1.03;;;1.80;99.90;;;;;;5034566;28;20046;-68
2021/01/14 02:28:45;;;;;;;4.07;0.90;;;1.80;99.90;;;;;;5034147;28;20495;-68
2021/01/14 02:31:13;;;;;;;5.37;1.03;;;1.80;99.90;;;;;;5034391;28;20080;-68
2021/01/14 02:33:40;;;;;;;4.50;1.30;;;1.80;99.90;;;;;;5034207;28;20462;-69
2021/01/14 02:36:07;;;;;;;5.70;1.00;;;1.80;99.90;;;;;;5035946;28;20049;-68
2021/01/14 02:38:34;;;;;;;3.47;0.87;;;1.80;99.90;;;;;;5034627;28;20045;-68
2021/01/14 02:41:01;;;;;;;10.83;1.40;;;1.80;99.90;;;;;;5029843;28;20049;-68
2021/01/14 02:43:28;;;;;;;6.10;1.40;;;1.80;99.90;;;;;;5035553;28;20046;-69
2021/01/14 02:45:55;;;;;;;6.17;1.10;;;1.80;99.90;;;;;;5037203;28;20042;-68
2021/01/14 02:48:29;;;;;;;4.40;1.10;;;1.80;99.90;;;;;;5038280;28;20049;-68
2021/01/14 02:51:00;;;;;;;5.73;1.20;;;1.80;99.90;;;;;;5037275;28;20606;-68
2021/01/14 02:53:29;;;;;;;4.87;1.00;;;1.80;99.90;;;;;;5037786;28;20045;-68
2021/01/14 02:55:55;;;;;;;3.20;1.20;;;1.80;99.90;;;;;;5032845;28;20183;-68
2021/01/14 02:58:22;;;;;;;4.27;0.87;;;1.70;99.90;;;;;;5025792;28;20041;-68
2021/01/14 03:00:49;;;;;;;5.23;1.20;;;1.80;99.90;;;;;;5027056;28;20511;-68
2021/01/14 03:03:16;;;;;;;8.00;1.10;;;1.70;99.90;;;;;;5025942;28;20231;-68
2021/01/14 03:05:42;;;;;;;3.00;0.90;;;1.70;99.90;;;;;;5026423;28;20056;-68
2021/01/14 03:08:09;;;;;;;4.93;1.10;;;1.70;99.90;;;;;;5028496;28;20049;-68
2021/01/14 03:10:35;;;;;;;5.27;1.13;;;1.70;99.90;;;;;;5028568;28;20112;-68
2021/01/14 03:13:02;;;;;;;6.83;0.83;;;1.70;99.90;;;;;;5024442;28;20045;-68
2021/01/14 03:15:28;;;;;;;4.30;1.07;;;1.70;99.90;;;;;;5031712;28;20072;-68
2021/01/14 03:17:56;;;;;;;3.47;0.83;;;1.70;99.90;;;;;;5036636;28;20045;-68
2021/01/14 03:20:22;;;;;;;7.07;1.03;;;1.70;99.90;;;;;;5029415;28;20049;-68
2021/01/14 03:22:49;;;;;;;5.93;0.90;;;1.90;99.90;;;;;;5028117;28;20049;-68
2021/01/14 03:25:15;;;;;;;4.60;0.90;;;1.70;99.90;;;;;;5026742;28;20276;-68
2021/01/14 03:27:43;;;;;;;4.97;1.10;;;1.70;99.90;;;;;;5023334;28;20049;-68
2021/01/14 03:30:12;;;;;;;5.30;1.03;;;1.60;99.90;;;;;;5027375;28;20428;-68
2021/01/14 03:32:39;;;;;;;7.97;1.13;;;1.80;99.90;;;;;;5026150;28;20046;-68
2021/01/14 03:35:08;;;;;;;5.13;0.83;;;1.80;99.90;;;;;;5026991;28;20071;-68
2021/01/14 03:37:37;;;;;;;4.00;0.90;;;1.80;99.90;;;;;;5025791;28;20106;-68
2021/01/14 03:40:05;;;;;;;6.13;1.00;;;1.80;99.90;;;;;;5024296;28;20103;-68
2021/01/14 03:42:31;;;;;;;4.00;0.87;;;1.70;99.90;;;;;;5025979;28;20092;-68
2021/01/14 03:44:58;;;;;;;9.50;1.77;;;1.70;99.90;;;;;;5026805;28;20041;-68
2021/01/14 03:47:25;;;;;;;5.23;1.10;;;1.70;99.90;;;;;;5026342;28;20501;-68
2021/01/14 03:49:51;;;;;;;5.00;0.77;;;1.70;99.90;;;;;;5026426;28;20092;-68
2021/01/14 03:52:19;;;;;;;5.50;1.30;;;1.70;99.90;;;;;;5025654;28;20041;-68
2021/01/14 03:54:46;;;;;;;6.70;1.10;;;1.70;99.90;;;;;;5026775;28;20099;-68
2021/01/14 03:57:13;;;;;;;4.33;1.13;;;1.60;99.90;;;;;;5026414;28;20053;-68
2021/01/14 03:59:40;;;;;;;4.80;1.00;;;1.70;99.90;;;;;;5027403;28;20045;-68
2021/01/14 04:02:06;;;;;;;4.00;0.80;;;1.60;99.90;;;;;;5026183;28;20053;-68
2021/01/14 04:04:34;;;;;;;3.30;0.70;;;1.80;99.90;;;;;;5024884;28;20052;-68
2021/01/14 04:07:00;;;;;;;4.13;0.90;;;1.80;99.90;;;;;;5032063;28;20128;-68
2021/01/14 04:09:28;;;;;;;3.00;0.90;;;1.70;99.90;;;;;;5045144;28;20102;-68
2021/01/14 04:11:55;;;;;;;5.93;1.50;;;1.70;99.90;;;;;;5046131;28;20055;-68
2021/01/14 04:14:21;;;;;;;7.07;0.97;;;1.70;99.90;;;;;;5044948;28;20376;-70
2021/01/14 04:16:52;;;;;;;13.63;1.70;;;1.60;99.90;;;;;;5045797;28;20048;-68
2021/01/14 04:19:19;;;;;;;5.43;1.10;;;1.50;99.90;;;;;;5046272;28;20159;-68
2021/01/14 04:21:46;;;;;;;10.80;1.47;;;1.50;99.90;;;;;;5045719;28;20110;-68
2021/01/14 04:24:12;;;;;;;4.90;0.90;;;1.40;99.90;;;;;;5045067;28;20170;-68
2021/01/14 04:26:40;;;;;;;7.40;1.20;;;1.40;99.90;;;;;;5045697;28;20049;-68
2021/01/14 04:29:07;;;;;;;7.80;1.30;;;1.50;99.90;;;;;;5046798;28;20053;-69
2021/01/14 04:31:34;;;;;;;4.77;1.00;;;1.50;99.90;;;;;;5045526;28;20418;-68
2021/01/14 04:34:01;;;;;;;3.57;0.97;;;1.50;99.90;;;;;;5043961;28;20053;-69
2021/01/14 04:36:27;;;;;;;10.33;1.90;;;1.50;99.90;;;;;;5041394;28;20049;-68
2021/01/14 04:38:54;;;;;;;3.10;0.93;;;1.50;99.90;;;;;;5035948;28;20041;-69
2021/01/14 04:41:21;;;;;;;5.43;1.00;;;1.50;99.90;;;;;;5025761;28;20053;-69
2021/01/14 04:43:50;;;;;;;5.03;0.87;;;1.40;99.90;;;;;;5024103;28;20045;-68
2021/01/14 04:46:17;;;;;;;8.80;1.13;;;1.40;99.90;;;;;;5025280;28;20053;-69
2021/01/14 04:48:45;;;;;;;5.83;1.10;;;1.50;99.90;;;;;;5025749;28;20107;-69
2021/01/14 04:51:13;;;;;;;6.63;1.03;;;1.40;99.90;;;;;;5025496;28;20065;-69
2021/01/14 04:53:42;;;;;;;6.03;1.00;;;1.40;99.90;;;;;;5024502;28;20056;-69
2021/01/14 04:56:10;;;;;;;2.80;0.73;;;1.40;99.90;;;;;;5025392;28;20655;-68
2021/01/14 04:58:38;;;;;;;4.30;1.10;;;1.40;99.90;;;;;;5025794;28;20064;-68
2021/01/14 05:01:11;;;;;;;4.73;0.90;;;1.50;99.90;;;;;;5024949;28;20049;-69
2021/01/14 05:03:40;;;;;;;3.37;1.00;;;1.40;99.90;;;;;;5024562;28;20049;-69
2021/01/14 05:06:07;;;;;;;9.03;0.93;;;1.30;99.90;;;;;;5021490;28;20050;-69
2021/01/14 05:08:34;;;;;;;3.50;1.13;;;1.30;99.90;;;;;;5024698;28;20053;-69
2021/01/14 05:11:01;;;;;;;5.90;1.30;;;1.30;99.90;;;;;;5025972;28;20057;-69
2021/01/14 05:13:30;;;;;;;2.93;0.77;;;1.30;99.90;;;;;;5023462;28;20103;-68
2021/01/14 05:15:57;;;;;;;2.63;1.00;;;1.50;99.90;;;;;;5025046;28;20053;-68
2021/01/14 05:18:24;;;;;;;7.07;1.10;;;1.30;99.90;;;;;;5025356;28;20431;-68
2021/01/14 05:20:51;;;;;;;4.90;1.27;;;1.40;99.90;;;;;;5024678;28;20067;-68
2021/01/14 05:23:21;;;;;;;5.80;0.97;;;1.40;99.90;;;;;;5023613;28;20053;-69
2021/01/14 05:25:52;;;;;;;6.90;1.00;;;1.40;99.90;;;;;;5024904;28;20661;-69
2021/01/14 05:28:20;;;;;;;9.87;1.93;;;1.30;99.90;;;;;;5025091;28;20410;-69
2021/01/14 05:30:48;;;;;;;2.87;0.97;;;1.30;99.90;;;;;;5024365;28;20240;-69
2021/01/14 05:33:16;;;;;;;2.20;0.80;;;1.30;99.90;;;;;;5023717;28;20049;-69
2021/01/14 05:35:48;;;;;;;6.60;0.93;;;1.20;99.90;;;;;;5022915;28;20761;-69
2021/01/14 05:38:26;;;;;;;5.77;1.00;;;1.20;99.90;;;;;;5025570;28;20061;-68
2021/01/14 05:41:18;;;;;;;1.80;0.80;;;1.20;99.90;;;;;;5044274;28;20557;-69
2021/01/14 05:43:49;;;;;;;3.80;0.90;;;1.30;99.90;;;;;;5043048;28;20057;-68
2021/01/14 05:46:17;;;;;;;5.50;0.97;;;1.20;99.90;;;;;;5044699;28;20053;-69
2021/01/14 05:48:45;;;;;;;5.53;1.27;;;1.20;99.90;;;;;;5043980;28;20068;-69
2021/01/14 05:51:18;;;;;;;10.20;1.20;;;1.30;99.90;;;;;;5044228;28;20055;-69
2021/01/14 05:53:54;;;;;;;5.83;1.10;;;1.40;99.90;;;;;;5042749;28;20045;-69
2021/01/14 05:56:36;;;;;;;9.73;1.25;;;1.40;99.90;;;;;;5044689;28;20061;-69
2021/01/14 05:59:04;;;;;;;3.43;0.90;;;1.40;99.90;;;;;;5043620;28;20053;-69
2021/01/14 06:01:31;;;;;;;4.93;1.13;;;1.40;99.90;;;;;;5045066;28;20103;-69
2021/01/14 06:04:16;;;;;;;5.67;1.20;;;1.30;99.90;;;;;;5043808;28;20053;-69
2021/01/14 06:06:45;;;;;;;6.63;1.27;;;1.30;99.90;;;;;;5029611;28;20041;-69
2021/01/14 06:09:12;;;;;;;7.30;1.20;;;1.30;99.90;;;;;;5042373;28;20056;-69
2021/01/14 06:11:40;;;;;;;8.53;1.47;;;1.30;99.90;;;;;;5042521;28;20041;-69
2021/01/14 06:14:07;;;;;;;6.50;1.10;;;1.20;99.90;;;;;;5042337;28;20045;-69
2021/01/14 06:16:49;;;;;;;3.27;1.27;;;1.30;99.90;;;;;;5043920;28;20108;-69
2021/01/14 06:19:15;;;;;;;11.03;1.43;;;1.30;99.90;;;;;;5048693;28;20045;-69
2021/01/14 06:21:46;;;;;;;4.30;1.30;;;1.50;99.90;;;;;;5051970;28;20053;-69
2021/01/14 06:24:27;;;;;;;12.50;2.20;;;1.40;99.90;;;;;;5051474;28;20087;-68
2021/01/14 06:26:55;;;;;;;4.80;1.20;;;1.40;99.90;;;;;;5036240;28;20076;-69
2021/01/14 06:29:24;;;;;;;6.60;1.80;;;1.40;99.90;;;;;;5030607;28;20111;-69
2021/01/14 06:31:51;;;;;;;8.10;1.40;;;1.40;99.90;;;;;;5034640;28;20419;-68
2021/01/14 06:34:20;;;;;;;4.70;1.33;;;1.40;99.90;;;;;;5023457;28;20038;-69
2021/01/14 06:36:50;;;;;;;6.83;1.20;;;1.40;99.90;;;;;;5021192;28;20608;-68
2021/01/14 06:39:19;;;;;;;7.93;1.20;;;1.40;99.90;;;;;;5025832;28;20049;-68
2021/01/14 06:41:47;;;;;;;9.07;2.00;;;1.40;99.90;;;;;;5024569;28;20057;-69
2021/01/14 06:44:15;;;;;;;3.90;1.37;;;1.30;99.90;;;;;;5033725;28;20414;-68
2021/01/14 06:46:42;;;;;;;4.90;1.40;;;1.40;99.90;;;;;;5026880;28;20045;-68
2021/01/14 06:49:12;;;;;;;4.60;1.47;;;1.40;99.90;;;;;;5027444;28;20100;-69
2021/01/14 06:52:07;;;;;;;4.93;1.50;;;1.30;99.90;;;;;;5026677;28;20085;-69
2021/01/14 06:54:39;;;;;;;7.07;1.30;;;1.20;99.90;;;;;;5019294;28;20147;-68
2021/01/14 06:57:15;;;;;;;5.33;1.20;;;1.30;99.90;;;;;;5030998;28;20123;-69
2021/01/14 06:59:43;;;;;;;7.13;1.65;;;1.30;99.90;;;;;;5027805;28;21105;-69
2021/01/14 07:02:44;;;;;;;3.53;1.27;;;1.20;99.90;;;;;;5026917;28;20107;-69
2021/01/14 07:05:19;;;;;;;5.00;1.40;;;1.30;99.90;;;;;;5029034;28;20050;-69
2021/01/14 07:07:47;;;;;;;12.73;1.37;;;1.20;99.90;;;;;;5026365;28;20503;-69
2021/01/14 07:10:15;;;;;;;5.67;1.63;;;1.40;99.90;;;;;;5025062;28;20056;-69
2021/01/14 07:12:43;;;;;;;3.87;1.40;;;1.40;99.90;;;;;;5025757;28;20091;-69
2021/01/14 07:15:11;;;;;;;4.37;1.20;;;1.40;99.90;;;;;;5026397;28;20056;-69
2021/01/14 07:17:40;;;;;;;5.80;1.63;;;1.40;99.90;;;;;;5023769;28;20678;-68
2021/01/14 07:20:10;;;;;;;6.27;1.30;;;1.30;99.90;;;;;;5018791;28;20602;-69
2021/01/14 07:22:46;;;;;;;9.90;2.20;;;1.30;99.90;;;;;;5017588;28;20106;-70
2021/01/14 07:25:14;;;;;;;5.43;1.13;;;1.30;99.90;;;;;;5025507;28;20061;-69
2021/01/14 07:27:42;;;;;;;13.07;2.10;;;1.30;99.90;;;;;;5024615;28;20049;-72
2021/01/14 07:30:10;;;;;;;3.60;1.43;;;1.30;99.90;;;;;;5021784;28;20060;-69
2021/01/14 07:33:04;;;;;;;5.30;1.37;;;1.30;99.90;;;;;;5016713;28;20404;-69
2021/01/14 07:35:38;;;;;;;5.50;1.30;;;1.40;99.90;;;;;;5016090;28;20057;-70
2021/01/14 07:38:05;;;;;;;6.73;1.60;;;1.30;99.90;;;;;;5017092;28;20046;-70
2021/01/14 07:40:34;;;;;;;4.23;1.43;;;1.40;99.90;;;;;;5015074;28;20041;-69
2021/01/14 07:43:03;;;;;;;5.37;1.70;;;1.40;99.90;;;;;;5019235;28;20053;-70
2021/01/14 07:45:30;;;;;;;10.60;1.47;;;1.30;99.90;;;;;;5039232;28;20057;-70
2021/01/14 07:48:16;;;;;;;6.17;1.40;;;1.40;99.90;;;;;;5018473;28;20045;-69
2021/01/14 07:50:53;;;;;;;7.93;1.77;;;1.40;99.90;;;;;;5030538;28;20583;-69
2021/01/14 07:53:20;;;;;;;;;;;1.40;99.90;;;;;;5010437;28;20500;-70
2021/01/14 07:55:48;;;;;;;7.22;1.63;;;1.50;99.90;;;;;;5045436;28;20286;-72
2021/01/14 07:58:23;;;;;;;9.67;1.53;;;1.40;99.90;;;;;;5026351;28;20049;-76
2021/01/14 08:01:04;;;;;;;6.80;1.60;;;1.60;99.90;;;;;;5030298;28;20518;-73
2021/01/14 08:03:32;;;;;;;4.00;1.53;;;1.50;99.90;;;;;;5034522;28;20057;-72
2021/01/14 08:05:59;;;;;;;8.03;1.57;;;1.60;99.90;;;;;;5034365;28;20052;-72
2021/01/14 08:08:54;;;;;;;6.57;1.63;;;1.60;99.90;;;;;;5032828;28;20516;-72
2021/01/14 08:11:23;;;;;;;4.97;1.60;;;1.60;99.90;;;;;;5025652;28;20053;-74
2021/01/14 08:14:11;;;;;;;7.03;2.13;;;1.60;99.90;;;;;;5018294;28;20041;-72
2021/01/14 08:16:39;;;;;;;13.33;1.90;;;1.60;99.90;;;;;;5018916;28;20639;-71
2021/01/14 08:19:20;;;;;;;4.47;2.27;;;1.70;99.90;;;;;;5024990;28;20053;-77
2021/01/14 08:21:48;;;;;;;8.93;1.77;;;1.60;99.90;;;;;;5024617;28;20447;-75
2021/01/14 08:24:33;;;;;;;4.57;1.27;;;1.70;99.90;;;;;;5021049;28;20578;-74
2021/01/14 08:27:02;;;;;;;6.03;1.60;;;1.60;99.90;;;;;;5021872;28;20606;-72
2021/01/14 08:29:33;;;;;;;9.57;1.93;;;1.70;99.90;;;;;;5008710;28;20081;-77
2021/01/14 08:32:01;;;;;;;5.00;1.93;;;1.70;99.90;;;;;;5003465;28;20061;-71
2021/01/14 08:34:28;;;;;;;9.03;1.97;;;1.50;99.90;;;;;;5020144;28;20057;-73
2021/01/14 08:36:56;;;;;;;9.33;1.80;;;1.50;99.90;;;;;;5033007;28;20052;-72
2021/01/14 08:39:24;;;;;;;6.60;2.33;;;1.60;99.90;;;;;;5022495;28;20773;-74
2021/01/14 08:41:52;;;;;;;4.70;1.67;;;1.60;99.90;;;;;;5035016;28;20064;-71
2021/01/14 08:44:29;;;;;;;9.73;2.00;;;1.70;99.90;;;;;;5021710;28;20080;-74
2021/01/14 08:46:55;;;;;;;;;;;1.50;99.90;;;;;;5014173;28;20038;-73
2021/01/14 08:49:22;;;;;;;7.90;2.17;;;1.70;99.90;;;;;;5004483;28;20270;-74
2021/01/14 08:51:49;;;;;;;5.13;2.17;;;1.70;99.90;;;;;;5016558;28;20076;-74
2021/01/14 08:54:16;;;;;;;5.40;2.13;;;1.70;99.90;;;;;;5026627;28;20052;-71
2021/01/14 08:56:42;;;;;;;5.97;2.20;;;1.70;99.90;;;;;;5021462;28;20128;-75
2021/01/14 08:59:13;;;;;;;5.43;2.30;;;1.70;99.90;;;;;;5015568;28;20495;-76
2021/01/14 09:01:41;;;;;;;9.60;1.77;;;1.80;99.90;;;;;;5015534;28;20374;-73
2021/01/14 09:04:09;;;;;;;9.63;2.23;;;1.70;99.90;;;;;;5019440;28;20053;-72
2021/01/14 09:06:40;;;;;;;5.90;1.90;;;1.70;99.90;;;;;;5023693;28;20045;-75
2021/01/14 09:09:07;;;;;;;9.50;2.60;;;1.70;99.90;;;;;;5021610;28;20064;-73
2021/01/14 09:11:35;;;;;;;7.23;3.13;;;1.90;99.90;;;;;;5019685;28;20053;-77
2021/01/14 09:14:03;;;;;;;5.07;1.80;;;1.90;99.90;;;;;;5022077;28;20104;-72
2021/01/14 09:16:30;;;;;;;10.33;2.17;;;1.90;99.90;;;;;;5016005;28;20050;-72
2021/01/14 09:18:57;;;;;;;6.40;1.93;;;1.80;99.90;;;;;;5024875;28;20046;-73
2021/01/14 09:21:24;;;;;;;5.97;2.10;;;1.80;99.90;;;;;;5027532;28;20056;-72
2021/01/14 09:23:50;;;;;;;8.17;2.07;;;1.90;99.90;;;;;;5030590;28;20562;-72
2021/01/14 09:26:20;;;;;;;9.70;2.70;;;1.90;99.90;;;;;;5022280;28;20049;-76
2021/01/14 09:28:51;;;;;;;10.97;2.77;;;2.00;99.90;;;;;;5023327;28;20057;-73
2021/01/14 09:31:18;;;;;;;11.00;4.13;;;1.90;99.90;;;;;;5027730;28;20044;-73
2021/01/14 09:33:46;;;;;;;9.87;3.00;;;2.00;99.90;;;;;;5021342;28;20131;-72
2021/01/14 09:36:15;;;;;;;19.27;3.37;;;2.10;99.90;;;;;;5020814;28;20435;-72
2021/01/14 09:38:47;;;;;;;9.57;2.50;;;2.10;99.90;;;;;;5024028;28;20052;-73
2021/01/14 09:41:23;;;;;;;11.57;2.20;;;2.30;99.90;;;;;;5027737;28;20135;-73
2021/01/14 09:43:51;;;;;;;8.47;2.43;;;2.30;99.90;;;;;;5040118;28;20423;-73
2021/01/14 09:46:20;;;;;;;5.40;2.30;;;2.10;99.90;;;;;;5035868;28;20339;-72
2021/01/14 09:48:47;;;;;;;12.53;2.43;;;2.20;99.90;;;;;;5028399;28;20081;-76
2021/01/14 09:51:20;;;;;;;9.53;2.10;;;2.30;99.90;;;;;;5018927;28;20416;-74
2021/01/14 09:53:48;;;;;;;7.77;2.17;;;2.30;99.90;;;;;;5017254;28;20077;-73
2021/01/14 09:56:20;;;;;;;5.57;2.37;;;2.40;99.90;;;;;;5023639;28;20052;-73
2021/01/14 09:58:52;;;;;;;8.27;2.37;;;2.30;99.90;;;;;;5021708;28;20142;-75
2021/01/14 10:01:22;;;;;;;3.77;1.80;;;2.40;99.90;;;;;;5020785;28;20069;-73
2021/01/14 10:03:58;;;;;;;6.10;2.50;;;2.40;99.90;;;;;;5025313;28;20096;-73
2021/01/14 10:06:27;;;;;;;6.63;2.33;;;2.60;99.90;;;;;;5026275;28;20045;-73
2021/01/14 10:08:54;;;;;;;6.77;2.37;;;2.50;99.90;;;;;;5028945;28;20612;-73
2021/01/14 10:11:21;;;;;;;8.57;2.40;;;2.50;99.90;;;;;;5022643;28;20057;-73
2021/01/14 10:13:49;;;;;;;6.93;2.07;;;2.60;99.90;;;;;;5023194;28;20042;-73
2021/01/14 10:16:15;;;;;;;6.63;2.53;;;2.70;99.90;;;;;;5019592;28;20048;-73
2021/01/14 10:18:42;;;;;;;6.73;2.30;;;2.90;99.90;;;;;;5023795;28;20426;-73
2021/01/14 10:21:08;;;;;;;6.50;2.13;;;2.90;99.90;;;;;;5021645;28;20527;-76
2021/01/14 10:23:35;;;;;;;9.20;3.33;;;3.10;99.90;;;;;;5017472;28;20416;-73
2021/01/14 10:26:02;;;;;;;8.33;2.40;;;3.30;99.90;;;;;;5016211;28;20050;-73
2021/01/14 10:28:28;;;;;;;8.17;2.77;;;3.20;99.90;;;;;;5019289;28;20054;-73
2021/01/14 10:30:55;;;;;;;5.93;2.40;;;3.20;99.90;;;;;;5013006;28;20049;-74
2021/01/14 10:33:21;;;;;;;7.20;2.03;;;3.20;99.90;;;;;;5020567;28;20053;-73
2021/01/14 10:35:57;;;;;;;7.60;2.00;;;3.20;99.90;;;;;;5033572;28;20049;-76
2021/01/14 10:38:23;;;;;;;5.47;2.30;;;3.20;99.90;;;;;;5032627;28;20061;-74
2021/01/14 10:40:51;;;;;;;9.13;2.60;;;3.00;99.90;;;;;;5042336;28;20046;-73
2021/01/14 10:43:29;;;;;;;7.23;2.40;;;2.90;99.90;;;;;;5020141;28;20568;-76
2021/01/14 10:45:56;;;;;;;6.73;2.40;;;2.90;99.90;;;;;;5019118;28;20450;-73
2021/01/14 10:48:22;;;;;;;8.63;2.70;;;3.00;99.90;;;;;;5020165;28;20427;-73
2021/01/14 10:50:51;;;;;;;6.30;2.47;;;3.30;99.90;;;;;;5023666;28;20049;-76
2021/01/14 10:53:25;;;;;;;5.10;2.20;;;3.60;99.90;;;;;;5028726;28;20041;-75
2021/01/14 10:56:04;;;;;;;4.87;2.27;;;3.60;99.90;;;;;;5025713;28;20050;-73
2021/01/14 10:58:32;;;;;;;5.90;2.33;;;3.50;99.90;;;;;;5020945;28;20049;-73
2021/01/14 11:00:58;;;;;;;8.63;1.90;;;3.30;99.90;;;;;;5021674;28;20049;-74
2021/01/14 11:03:26;;;;;;;8.37;2.60;;;3.20;99.90;;;;;;5019507;28;20053;-73
2021/01/14 11:05:54;;;;;;;8.93;2.50;;;3.10;99.90;;;;;;5025096;28;20412;-75
2021/01/14 11:08:22;;;;;;;3.73;2.10;;;3.10;99.90;;;;;;5025867;28;20049;-74
2021/01/14 11:11:01;;;;;;;7.40;2.33;;;3.10;99.90;;;;;;5018349;28;20507;-75
2021/01/14 11:13:40;;;;;;;8.53;2.40;;;3.10;99.90;;;;;;5025237;28;20480;-73
2021/01/14 11:16:08;;;;;;;7.13;2.50;;;3.00;99.90;;;;;;5029815;28;20061;-74
2021/01/14 11:18:40;;;;;;;5.93;2.17;;;3.00;99.90;;;;;;5029725;28;20053;-73
2021/01/14 11:21:07;;;;;;;6.57;2.03;;;2.90;99.90;;;;;;5010614;28;20053;-74
2021/01/14 11:23:33;;;;;;;8.60;2.60;;;3.00;99.90;;;;;;5003556;28;20073;-76
2021/01/14 11:26:02;;;;;;;5.83;2.73;;;2.90;99.90;;;;;;5005015;28;20052;-72
2021/01/14 11:28:29;;;;;;;13.03;2.83;;;3.00;99.90;;;;;;5010373;28;20507;-73
2021/01/14 11:30:56;;;;;;;9.07;2.30;;;3.10;99.90;;;;;;5017551;28;20056;-73
2021/01/14 11:33:23;;;;;;;6.17;2.60;;;3.10;99.90;;;;;;5030673;28;20046;-72
2021/01/14 11:35:49;;;;;;;5.53;2.20;;;3.00;99.90;;;;;;5026776;28;20058;-72
2021/01/14 11:38:18;;;;;;;6.93;2.53;;;3.00;99.90;;;;;;5030239;28;20142;-72
2021/01/14 11:40:47;;;;;;;5.97;2.27;;;2.90;99.90;;;;;;5028594;28;20052;-76
2021/01/14 11:43:13;;;;;;;8.57;2.33;;;2.80;99.90;;;;;;5028023;28;20458;-74
2021/01/14 11:45:40;;;;;;;8.40;2.70;;;2.90;99.90;;;;;;5030422;28;20049;-73
2021/01/14 11:48:08;;;;;;;9.80;2.80;;;3.00;99.90;;;;;;5030204;28;20467;-72
2021/01/14 11:50:35;;;;;;;7.37;2.40;;;3.00;99.90;;;;;;5024643;28;20419;-74
2021/01/14 11:53:02;;;;;;;7.20;2.87;;;3.10;99.90;;;;;;5017274;28;20504;-75
2021/01/14 11:55:28;;;;;;;6.23;2.63;;;3.10;99.90;;;;;;5028080;28;20037;-74
2021/01/14 11:57:55;;;;;;;5.63;2.60;;;3.00;99.90;;;;;;5045209;28;20044;-73
2021/01/14 12:00:22;;;;;;;9.47;2.80;;;3.00;99.90;;;;;;5031112;28;20061;-72
2021/01/14 12:02:48;;;;;;;9.40;3.23;;;3.00;99.90;;;;;;5029435;28;20423;-76
2021/01/14 12:05:16;;;;;;;9.13;3.00;;;3.10;99.90;;;;;;5030446;28;20064;-74
2021/01/14 12:07:42;;;;;;;10.13;3.13;;;3.10;99.90;;;;;;5035793;28;20080;-74
2021/01/14 12:10:09;;;;;;;9.07;2.63;;;3.10;99.90;;;;;;5049353;28;20824;-76
2021/01/14 12:12:36;;;;;;;13.10;3.00;;;3.00;99.90;;;;;;5044155;28;20068;-73
2021/01/14 12:15:05;;;;;;;7.07;3.20;;;3.00;99.90;;;;;;5039736;28;20053;-72
2021/01/14 12:17:31;;;;;;;9.57;3.63;;;3.00;99.90;;;;;;5028693;28;20531;-75
2021/01/14 12:19:58;;;;;;;7.80;3.13;;;2.90;99.90;;;;;;5026685;28;20045;-74
2021/01/14 12:22:25;;;;;;;9.37;2.90;;;2.90;99.90;;;;;;5028008;28;20450;-73
2021/01/14 12:24:52;;;;;;;13.07;3.97;;;2.80;99.90;;;;;;5029073;28;20056;-72
2021/01/14 12:27:18;;;;;;;11.97;3.50;;;2.80;99.90;;;;;;5029464;28;20049;-74
2021/01/14 12:29:47;;;;;;;15.73;3.40;;;2.80;99.90;;;;;;5030245;28;20045;-73
2021/01/14 12:32:13;;;;;;;7.20;3.43;;;2.80;99.90;;;;;;5029317;28;20060;-73
2021/01/14 12:34:40;;;;;;;7.70;3.60;;;2.90;99.90;;;;;;5029666;28;20053;-72
2021/01/14 12:37:06;;;;;;;12.33;3.17;;;2.90;99.90;;;;;;5035691;28;20057;-72
2021/01/14 12:39:34;;;;;;;8.90;3.00;;;2.70;99.90;;;;;;5027374;28;20048;-76
2021/01/14 12:42:00;;;;;;;11.83;3.50;;;2.70;99.90;;;;;;5020661;28;20049;-72
2021/01/14 12:44:27;;;;;;;10.87;4.03;;;2.60;99.90;;;;;;5021460;28;20049;-75
2021/01/14 12:46:53;;;;;;;7.70;3.53;;;2.60;99.90;;;;;;5021272;28;20499;-76
2021/01/14 12:49:20;;;;;;;10.20;3.17;;;2.70;99.90;;;;;;5021236;28;20045;-76
2021/01/14 12:51:47;;;;;;;8.83;3.20;;;2.60;99.90;;;;;;5018641;28;20049;-74
2021/01/14 12:54:13;;;;;;;8.40;3.60;;;2.70;99.90;;;;;;5024380;28;20049;-72
2021/01/14 12:56:42;;;;;;;12.93;3.80;;;2.70;99.90;;;;;;5026018;28;20107;-72
2021/01/14 12:59:09;;;;;;;9.93;3.20;;;2.70;99.90;;;;;;5025275;28;20124;-75
2021/01/14 13:01:37;;;;;;;9.20;3.47;;;2.80;99.90;;;;;;5027250;28;20041;-74
2021/01/14 13:04:06;;;;;;;8.03;3.07;;;2.80;99.90;;;;;;5025167;28;20140;-73
2021/01/14 13:06:34;;;;;;;9.10;3.40;;;2.80;99.90;;;;;;5028684;28;20060;-72
2021/01/14 13:09:02;;;;;;;11.03;3.70;;;2.80;99.90;;;;;;5030507;28;20045;-72